sensor_id;sensor_type;location;lat;lon;timestamp;pressure;altitude;pressure_sealevel;temperature;humidity
80323;BME280;69636;52.372;13.610;2023-08-06T00:00:38;100581.78;;;16.61;93.74
80323;BME280;69636;52.372;13.610;2023-08-06T00:03:06;100580.94;;;16.60;93.97
80323;BME280;69636;52.372;13.610;2023-08-06T00:05:33;100586.91;;;16.56;94.58
80323;BME280;69636;52.372;13.610;2023-08-06T00:08:00;100579.25;;;16.53;94.51
80323;BME280;69636;52.372;13.610;2023-08-06T00:10:29;100579.25;;;16.53;94.89
80323;BME280;69636;52.372;13.610;2023-08-06T00:12:57;100568.53;;;16.53;94.79
80323;BME280;69636;52.372;13.610;2023-08-06T00:15:24;100566.28;;;16.56;94.51
80323;BME280;69636;52.372;13.610;2023-08-06T00:17:51;100566.31;;;16.63;95.04
80323;BME280;69636;52.372;13.610;2023-08-06T00:20:19;100564.91;;;16.67;94.29
80323;BME280;69636;52.372;13.610;2023-08-06T00:22:46;100559.72;;;16.59;95.46
80323;BME280;69636;52.372;13.610;2023-08-06T00:25:14;100559.41;;;16.47;94.69
80323;BME280;69636;52.372;13.610;2023-08-06T00:27:43;100558.59;;;16.47;94.15
80323;BME280;69636;52.372;13.610;2023-08-06T00:30:10;100559.03;;;16.50;93.97
80323;BME280;69636;52.372;13.610;2023-08-06T00:32:38;100562.28;;;16.46;94.12
80323;BME280;69636;52.372;13.610;2023-08-06T00:35:06;100554.53;;;16.57;93.51
80323;BME280;69636;52.372;13.610;2023-08-06T00:37:33;100545.13;;;16.34;94.63
80323;BME280;69636;52.372;13.610;2023-08-06T00:40:01;100545.50;;;16.31;95.00
80323;BME280;69636;52.372;13.610;2023-08-06T00:42:28;100546.72;;;16.28;95.21
80323;BME280;69636;52.372;13.610;2023-08-06T00:44:57;100542.78;;;16.24;95.44
80323;BME280;69636;52.372;13.610;2023-08-06T00:47:24;100541.94;;;16.23;95.87
80323;BME280;69636;52.372;13.610;2023-08-06T00:49:52;100544.00;;;16.21;96.72
80323;BME280;69636;52.372;13.610;2023-08-06T00:52:19;100547.22;;;16.10;96.84
80323;BME280;69636;52.372;13.610;2023-08-06T00:54:47;100555.84;;;16.12;96.99
80323;BME280;69636;52.372;13.610;2023-08-06T00:57:14;100545.56;;;16.09;97.50
80323;BME280;69636;52.372;13.610;2023-08-06T00:59:42;100545.94;;;16.06;98.12
80323;BME280;69636;52.372;13.610;2023-08-06T01:02:11;100553.34;;;16.04;97.90
80323;BME280;69636;52.372;13.610;2023-08-06T01:04:39;100544.28;;;16.05;97.88
80323;BME280;69636;52.372;13.610;2023-08-06T01:07:14;100546.13;;;16.05;97.68
80323;BME280;69636;52.372;13.610;2023-08-06T01:09:47;100544.28;;;16.05;97.78
80323;BME280;69636;52.372;13.610;2023-08-06T01:12:22;100537.28;;;16.04;97.07
80323;BME280;69636;52.372;13.610;2023-08-06T01:15:02;100537.97;;;15.91;98.47
80323;BME280;69636;52.372;13.610;2023-08-06T01:17:35;100533.53;;;15.99;98.02
80323;BME280;69636;52.372;13.610;2023-08-06T01:20:04;100527.72;;;15.95;97.98
80323;BME280;69636;52.372;13.610;2023-08-06T01:22:33;100524.41;;;15.93;98.51
80323;BME280;69636;52.372;13.610;2023-08-06T01:25:00;100521.63;;;15.80;99.31
80323;BME280;69636;52.372;13.610;2023-08-06T01:27:30;100520.94;;;15.71;99.95
80323;BME280;69636;52.372;13.610;2023-08-06T01:30:03;100518.38;;;15.63;100.00
80323;BME280;69636;52.372;13.610;2023-08-06T01:32:34;100522.06;;;15.62;100.00
80323;BME280;69636;52.372;13.610;2023-08-06T01:35:03;100525.53;;;15.77;99.84
80323;BME280;69636;52.372;13.610;2023-08-06T01:37:32;100519.47;;;15.69;100.00
80323;BME280;69636;52.372;13.610;2023-08-06T01:40:00;100522.00;;;15.55;100.00
80323;BME280;69636;52.372;13.610;2023-08-06T01:42:27;100513.34;;;15.53;100.00
80323;BME280;69636;52.372;13.610;2023-08-06T01:44:55;100511.03;;;15.50;100.00
80323;BME280;69636;52.372;13.610;2023-08-06T01:47:22;100500.91;;;15.46;100.00
80323;BME280;69636;52.372;13.610;2023-08-06T01:49:49;100508.47;;;15.42;100.00
80323;BME280;69636;52.372;13.610;2023-08-06T01:52:17;100501.09;;;15.44;100.00
80323;BME280;69636;52.372;13.610;2023-08-06T01:54:45;100498.31;;;15.52;100.00
80323;BME280;69636;52.372;13.610;2023-08-06T01:57:13;100492.81;;;15.60;100.00
80323;BME280;69636;52.372;13.610;2023-08-06T01:59:40;100491.59;;;15.56;100.00
80323;BME280;69636;52.372;13.610;2023-08-06T02:02:07;100492.69;;;15.47;100.00
80323;BME280;69636;52.372;13.610;2023-08-06T02:04:35;100494.34;;;15.48;100.00
80323;BME280;69636;52.372;13.610;2023-08-06T02:07:02;100488.16;;;15.48;100.00
80323;BME280;69636;52.372;13.610;2023-08-06T02:09:32;100484.47;;;15.49;100.00
80323;BME280;69636;52.372;13.610;2023-08-06T02:12:00;100481.63;;;15.50;100.00
80323;BME280;69636;52.372;13.610;2023-08-06T02:14:28;100473.34;;;15.67;100.00
80323;BME280;69636;52.372;13.610;2023-08-06T02:16:55;100473.28;;;15.60;100.00
80323;BME280;69636;52.372;13.610;2023-08-06T02:19:22;100474.69;;;15.56;100.00
80323;BME280;69636;52.372;13.610;2023-08-06T02:21:50;100466.13;;;15.46;100.00
80323;BME280;69636;52.372;13.610;2023-08-06T02:24:17;100468.03;;;15.52;100.00
80323;BME280;69636;52.372;13.610;2023-08-06T02:26:45;100460.34;;;15.64;100.00
80323;BME280;69636;52.372;13.610;2023-08-06T02:29:13;100455.31;;;15.54;100.00
80323;BME280;69636;52.372;13.610;2023-08-06T02:31:41;100457.28;;;15.45;100.00
80323;BME280;69636;52.372;13.610;2023-08-06T02:34:08;100457.28;;;15.45;100.00
80323;BME280;69636;52.372;13.610;2023-08-06T02:36:36;100450.84;;;15.61;100.00
80323;BME280;69636;52.372;13.610;2023-08-06T02:39:03;100450.00;;;15.60;100.00
80323;BME280;69636;52.372;13.610;2023-08-06T02:41:30;100447.34;;;15.60;100.00
80323;BME280;69636;52.372;13.610;2023-08-06T02:43:57;100448.44;;;15.66;100.00
80323;BME280;69636;52.372;13.610;2023-08-06T02:46:26;100449.06;;;15.68;100.00
80323;BME280;69636;52.372;13.610;2023-08-06T02:48:53;100442.50;;;15.49;100.00
80323;BME280;69636;52.372;13.610;2023-08-06T02:51:21;100449.00;;;15.40;100.00
80323;BME280;69636;52.372;13.610;2023-08-06T02:53:48;100450.59;;;15.35;100.00
80323;BME280;69636;52.372;13.610;2023-08-06T02:56:15;100449.91;;;15.26;100.00
80323;BME280;69636;52.372;13.610;2023-08-06T02:58:43;100450.28;;;15.23;100.00
80323;BME280;69636;52.372;13.610;2023-08-06T03:01:10;100451.03;;;15.17;100.00
80323;BME280;69636;52.372;13.610;2023-08-06T03:03:39;100451.97;;;15.09;100.00
80323;BME280;69636;52.372;13.610;2023-08-06T03:06:06;100446.00;;;15.07;100.00
80323;BME280;69636;52.372;13.610;2023-08-06T03:08:33;100448.81;;;14.99;100.00
80323;BME280;69636;52.372;13.610;2023-08-06T03:11:01;100443.66;;;14.98;100.00
80323;BME280;69636;52.372;13.610;2023-08-06T03:13:28;100434.25;;;15.02;100.00
80323;BME280;69636;52.372;13.610;2023-08-06T03:15:58;100433.44;;;15.08;100.00
80323;BME280;69636;52.372;13.610;2023-08-06T03:18:26;100429.38;;;15.12;100.00
80323;BME280;69636;52.372;13.610;2023-08-06T03:20:55;100423.59;;;15.08;100.00
80323;BME280;69636;52.372;13.610;2023-08-06T03:23:23;100411.03;;;15.09;100.00
80323;BME280;69636;52.372;13.610;2023-08-06T03:25:52;100405.69;;;15.09;100.00
80323;BME280;69636;52.372;13.610;2023-08-06T03:28:19;100402.19;;;15.08;100.00
80323;BME280;69636;52.372;13.610;2023-08-06T03:30:47;100395.47;;;15.12;100.00
80323;BME280;69636;52.372;13.610;2023-08-06T03:33:15;100400.63;;;15.14;100.00
80323;BME280;69636;52.372;13.610;2023-08-06T03:35:42;100390.19;;;15.19;100.00
80323;BME280;69636;52.372;13.610;2023-08-06T03:38:11;100390.94;;;15.13;100.00
80323;BME280;69636;52.372;13.610;2023-08-06T03:40:38;100387.25;;;15.14;100.00
80323;BME280;69636;52.372;13.610;2023-08-06T03:43:05;100387.81;;;15.09;100.00
80323;BME280;69636;52.372;13.610;2023-08-06T03:45:33;100387.13;;;15.01;100.00
80323;BME280;69636;52.372;13.610;2023-08-06T03:48:00;100385.41;;;14.93;100.00
80323;BME280;69636;52.372;13.610;2023-08-06T03:50:27;100387.63;;;14.89;100.00
80323;BME280;69636;52.372;13.610;2023-08-06T03:52:55;100380.19;;;14.85;100.00
80323;BME280;69636;52.372;13.610;2023-08-06T03:55:24;100379.81;;;14.88;100.00
80323;BME280;69636;52.372;13.610;2023-08-06T03:57:51;100375.53;;;14.93;100.00
80323;BME280;69636;52.372;13.610;2023-08-06T04:00:19;100365.59;;;15.09;100.00
80323;BME280;69636;52.372;13.610;2023-08-06T04:02:46;100362.16;;;15.15;100.00
80323;BME280;69636;52.372;13.610;2023-08-06T04:05:13;100353.50;;;15.13;100.00
80323;BME280;69636;52.372;13.610;2023-08-06T04:07:41;100345.00;;;15.03;100.00
80323;BME280;69636;52.372;13.610;2023-08-06T04:10:09;100352.38;;;15.01;100.00
80323;BME280;69636;52.372;13.610;2023-08-06T04:12:38;100351.75;;;14.99;100.00
80323;BME280;69636;52.372;13.610;2023-08-06T04:15:06;100346.78;;;14.96;100.00
80323;BME280;69636;52.372;13.610;2023-08-06T04:17:34;100343.72;;;14.99;100.00
80323;BME280;69636;52.372;13.610;2023-08-06T04:20:01;100344.00;;;15.04;100.00
80323;BME280;69636;52.372;13.610;2023-08-06T04:22:29;100336.97;;;15.03;100.00
80323;BME280;69636;52.372;13.610;2023-08-06T04:24:56;100331.63;;;15.03;100.00
80323;BME280;69636;52.372;13.610;2023-08-06T04:27:25;100324.00;;;15.00;100.00
80323;BME280;69636;52.372;13.610;2023-08-06T04:29:54;100325.91;;;15.06;100.00
80323;BME280;69636;52.372;13.610;2023-08-06T04:32:24;100319.47;;;15.00;100.00
80323;BME280;69636;52.372;13.610;2023-08-06T04:34:52;100319.03;;;14.97;100.00
80323;BME280;69636;52.372;13.610;2023-08-06T04:37:19;100318.66;;;15.00;100.00
80323;BME280;69636;52.372;13.610;2023-08-06T04:39:47;100317.75;;;14.92;100.00
80323;BME280;69636;52.372;13.610;2023-08-06T04:42:14;100308.09;;;14.91;100.00
80323;BME280;69636;52.372;13.610;2023-08-06T04:44:41;100313.25;;;14.93;100.00
80323;BME280;69636;52.372;13.610;2023-08-06T04:47:10;100309.56;;;14.94;100.00
80323;BME280;69636;52.372;13.610;2023-08-06T04:49:37;100305.41;;;14.91;100.00
80323;BME280;69636;52.372;13.610;2023-08-06T04:52:05;100302.09;;;14.89;100.00
80323;BME280;69636;52.372;13.610;2023-08-06T04:54:33;100312.03;;;14.96;100.00
80323;BME280;69636;52.372;13.610;2023-08-06T04:57:01;100309.38;;;14.96;100.00
80323;BME280;69636;52.372;13.610;2023-08-06T04:59:28;100297.91;;;15.02;100.00
80323;BME280;69636;52.372;13.610;2023-08-06T05:01:55;100310.28;;;15.09;100.00
80323;BME280;69636;52.372;13.610;2023-08-06T05:04:27;100301.44;;;15.09;100.00
80323;BME280;69636;52.372;13.610;2023-08-06T05:06:54;100303.06;;;15.03;100.00
80323;BME280;69636;52.372;13.610;2023-08-06T05:09:21;100309.22;;;15.04;100.00
80323;BME280;69636;52.372;13.610;2023-08-06T05:11:49;100297.91;;;15.02;100.00
80323;BME280;69636;52.372;13.610;2023-08-06T05:14:16;100300.56;;;15.02;100.00
80323;BME280;69636;52.372;13.610;2023-08-06T05:16:43;100297.09;;;15.08;100.00
80323;BME280;69636;52.372;13.610;2023-08-06T05:19:11;100295.25;;;15.08;100.00
80323;BME280;69636;52.372;13.610;2023-08-06T05:21:39;100290.34;;;15.12;100.00
80323;BME280;69636;52.372;13.610;2023-08-06T05:24:07;100287.09;;;15.16;100.00
80323;BME280;69636;52.372;13.610;2023-08-06T05:26:35;100278.50;;;15.21;100.00
80323;BME280;69636;52.372;13.610;2023-08-06T05:29:03;100277.09;;;15.25;100.00
80323;BME280;69636;52.372;13.610;2023-08-06T05:31:30;100275.66;;;15.22;100.00
80323;BME280;69636;52.372;13.610;2023-08-06T05:33:58;100281.88;;;15.30;100.00
80323;BME280;69636;52.372;13.610;2023-08-06T05:36:27;100275.09;;;15.34;100.00
80323;BME280;69636;52.372;13.610;2023-08-06T05:38:57;100275.72;;;15.36;100.00
80323;BME280;69636;52.372;13.610;2023-08-06T05:41:25;100277.91;;;15.53;100.00
80323;BME280;69636;52.372;13.610;2023-08-06T05:43:52;100277.56;;;15.63;100.00
80323;BME280;69636;52.372;13.610;2023-08-06T05:46:20;100278.31;;;15.91;100.00
80323;BME280;69636;52.372;13.610;2023-08-06T05:48:48;100277.28;;;15.92;100.00
80323;BME280;69636;52.372;13.610;2023-08-06T05:51:16;100283.94;;;16.03;99.05
80323;BME280;69636;52.372;13.610;2023-08-06T05:53:43;100271.59;;;16.09;98.26
80323;BME280;69636;52.372;13.610;2023-08-06T05:56:12;100265.19;;;16.03;99.13
80323;BME280;69636;52.372;13.610;2023-08-06T05:58:40;100272.53;;;15.81;100.00
80323;BME280;69636;52.372;13.610;2023-08-06T06:01:07;100264.84;;;15.72;100.00
80323;BME280;69636;52.372;13.610;2023-08-06T06:03:34;100259.22;;;16.01;99.04
80323;BME280;69636;52.372;13.610;2023-08-06T06:06:01;100254.78;;;15.74;100.00
80323;BME280;69636;52.372;13.610;2023-08-06T06:08:29;100257.59;;;15.59;100.00
80323;BME280;69636;52.372;13.610;2023-08-06T06:10:56;100256.44;;;15.75;100.00
80323;BME280;69636;52.372;13.610;2023-08-06T06:13:25;100256.38;;;15.68;100.00
80323;BME280;69636;52.372;13.610;2023-08-06T06:15:54;100247.09;;;15.64;100.00
80323;BME280;69636;52.372;13.610;2023-08-06T06:18:22;100252.03;;;15.60;100.00
80323;BME280;69636;52.372;13.610;2023-08-06T06:20:49;100251.63;;;15.57;100.00
80323;BME280;69636;52.372;13.610;2023-08-06T06:23:16;100252.81;;;15.54;100.00
80323;BME280;69636;52.372;13.610;2023-08-06T06:25:47;100245.81;;;15.53;100.00
80323;BME280;69636;52.372;13.610;2023-08-06T06:28:15;100245.44;;;15.56;100.00
80323;BME280;69636;52.372;13.610;2023-08-06T06:30:43;100233.91;;;15.63;100.00
80323;BME280;69636;52.372;13.610;2023-08-06T06:33:10;100242.56;;;15.65;100.00
80323;BME280;69636;52.372;13.610;2023-08-06T06:35:38;100242.63;;;15.71;100.00
80323;BME280;69636;52.372;13.610;2023-08-06T06:38:05;100242.78;;;15.63;100.00
80323;BME280;69636;52.372;13.610;2023-08-06T06:40:33;100238.47;;;15.69;100.00
80323;BME280;69636;52.372;13.610;2023-08-06T06:43:00;100240.72;;;15.65;100.00
80323;BME280;69636;52.372;13.610;2023-08-06T06:45:27;100244.63;;;15.63;100.00
80323;BME280;69636;52.372;13.610;2023-08-06T06:47:56;100239.75;;;15.73;100.00
80323;BME280;69636;52.372;13.610;2023-08-06T06:50:23;100242.03;;;15.76;100.00
80323;BME280;69636;52.372;13.610;2023-08-06T06:52:51;100235.88;;;15.82;100.00
80323;BME280;69636;52.372;13.610;2023-08-06T06:55:18;100238.94;;;15.79;100.00
80323;BME280;69636;52.372;13.610;2023-08-06T06:57:45;100241.22;;;15.82;100.00
80323;BME280;69636;52.372;13.610;2023-08-06T07:00:13;100244.94;;;15.81;100.00
80323;BME280;69636;52.372;13.610;2023-08-06T07:02:41;100241.00;;;15.77;100.00
80323;BME280;69636;52.372;13.610;2023-08-06T07:05:10;100236.88;;;15.74;100.00
80323;BME280;69636;52.372;13.610;2023-08-06T07:07:37;100235.19;;;15.67;100.00
80323;BME280;69636;52.372;13.610;2023-08-06T07:10:05;100239.97;;;15.78;100.00
80323;BME280;69636;52.372;13.610;2023-08-06T07:12:33;100237.78;;;16.01;100.00
80323;BME280;69636;52.372;13.610;2023-08-06T07:15:00;100237.81;;;16.08;100.00
80323;BME280;69636;52.372;13.610;2023-08-06T07:17:28;100239.47;;;16.09;100.00
80323;BME280;69636;52.372;13.610;2023-08-06T07:19:56;100243.19;;;16.08;100.00
80323;BME280;69636;52.372;13.610;2023-08-06T07:22:25;100233.09;;;16.10;100.00
80323;BME280;69636;52.372;13.610;2023-08-06T07:24:52;100234.13;;;16.15;100.00
80323;BME280;69636;52.372;13.610;2023-08-06T07:27:19;100235.34;;;16.13;100.00
80323;BME280;69636;52.372;13.610;2023-08-06T07:29:47;100240.28;;;16.16;100.00
80323;BME280;69636;52.372;13.610;2023-08-06T07:32:14;100233.94;;;16.23;100.00
80323;BME280;69636;52.372;13.610;2023-08-06T07:34:41;100233.94;;;16.23;100.00
80323;BME280;69636;52.372;13.610;2023-08-06T07:37:09;100238.44;;;16.16;100.00
80323;BME280;69636;52.372;13.610;2023-08-06T07:39:37;100235.38;;;16.19;100.00
80323;BME280;69636;52.372;13.610;2023-08-06T07:42:05;100231.66;;;16.20;100.00
80323;BME280;69636;52.372;13.610;2023-08-06T07:44:33;100227.34;;;16.19;100.00
80323;BME280;69636;52.372;13.610;2023-08-06T07:47:00;100233.75;;;16.25;100.00
80323;BME280;69636;52.372;13.610;2023-08-06T07:49:27;100233.34;;;16.28;100.00
80323;BME280;69636;52.372;13.610;2023-08-06T07:51:55;100235.81;;;16.29;100.00
80323;BME280;69636;52.372;13.610;2023-08-06T07:54:22;100231.28;;;16.30;100.00
80323;BME280;69636;52.372;13.610;2023-08-06T07:56:51;100229.44;;;16.31;100.00
80323;BME280;69636;52.372;13.610;2023-08-06T07:59:18;100234.56;;;16.25;100.00
80323;BME280;69636;52.372;13.610;2023-08-06T08:01:46;100233.94;;;16.23;100.00
80323;BME280;69636;52.372;13.610;2023-08-06T08:04:14;100227.16;;;16.27;100.00
80323;BME280;69636;52.372;13.610;2023-08-06T08:06:41;100242.00;;;16.37;100.00
80323;BME280;69636;52.372;13.610;2023-08-06T08:09:09;100231.28;;;16.43;100.00
80323;BME280;69636;52.372;13.610;2023-08-06T08:11:36;100231.31;;;16.50;100.00
80323;BME280;69636;52.372;13.610;2023-08-06T08:14:05;100229.66;;;16.49;100.00
80323;BME280;69636;52.372;13.610;2023-08-06T08:16:33;100224.06;;;16.37;100.00
80323;BME280;69636;52.372;13.610;2023-08-06T08:19:01;100222.81;;;16.26;100.00
80323;BME280;69636;52.372;13.610;2023-08-06T08:21:28;100220.56;;;16.23;100.00
80323;BME280;69636;52.372;13.610;2023-08-06T08:23:56;100216.44;;;16.27;100.00
80323;BME280;69636;52.372;13.610;2023-08-06T08:26:23;100213.13;;;16.25;100.00
80323;BME280;69636;52.372;13.610;2023-08-06T08:28:51;100212.28;;;16.18;100.00
80323;BME280;69636;52.372;13.610;2023-08-06T08:31:20;100208.56;;;16.13;100.00
80323;BME280;69636;52.372;13.610;2023-08-06T08:33:48;100203.63;;;16.16;100.00
80323;BME280;69636;52.372;13.610;2023-08-06T08:36:15;100201.78;;;16.17;100.00
80323;BME280;69636;52.372;13.610;2023-08-06T08:38:42;100192.91;;;16.03;100.00
80323;BME280;69636;52.372;13.610;2023-08-06T08:41:10;100192.88;;;15.97;100.00
80323;BME280;69636;52.372;13.610;2023-08-06T08:43:38;100187.56;;;16.03;100.00
80323;BME280;69636;52.372;13.610;2023-08-06T08:46:09;100188.81;;;16.07;100.00
80323;BME280;69636;52.372;13.610;2023-08-06T08:48:40;100179.72;;;16.15;100.00
80323;BME280;69636;52.372;13.610;2023-08-06T08:51:07;100172.31;;;16.17;100.00
80323;BME280;69636;52.372;13.610;2023-08-06T08:53:36;100169.47;;;16.32;100.00
80323;BME280;69636;52.372;13.610;2023-08-06T08:56:04;100172.75;;;16.47;100.00
80323;BME280;69636;52.372;13.610;2023-08-06T08:58:34;100172.75;;;16.47;100.00
80323;BME280;69636;52.372;13.610;2023-08-06T09:01:02;100166.16;;;16.43;100.00
80323;BME280;69636;52.372;13.610;2023-08-06T09:03:30;100161.44;;;16.32;100.00
80323;BME280;69636;52.372;13.610;2023-08-06T09:06:03;100156.06;;;16.45;100.00
80323;BME280;69636;52.372;13.610;2023-08-06T09:08:36;100159.78;;;16.50;100.00
80323;BME280;69636;52.372;13.610;2023-08-06T09:11:08;100152.59;;;16.57;100.00
80323;BME280;69636;52.372;13.610;2023-08-06T09:13:37;100145.53;;;16.63;100.00
80323;BME280;69636;52.372;13.610;2023-08-06T09:16:04;100149.69;;;16.59;100.00
80323;BME280;69636;52.372;13.610;2023-08-06T09:18:32;100148.47;;;16.55;100.00
80323;BME280;69636;52.372;13.610;2023-08-06T09:21:00;100147.22;;;16.57;100.00
80323;BME280;69636;52.372;13.610;2023-08-06T09:23:29;100136.91;;;16.61;100.00
80323;BME280;69636;52.372;13.610;2023-08-06T09:25:57;100137.50;;;16.63;100.00
80323;BME280;69636;52.372;13.610;2023-08-06T09:28:24;100127.44;;;16.85;100.00
80323;BME280;69636;52.372;13.610;2023-08-06T09:30:52;100131.09;;;16.97;100.00
80323;BME280;69636;52.372;13.610;2023-08-06T09:33:22;100130.47;;;17.02;100.00
80323;BME280;69636;52.372;13.610;2023-08-06T09:35:49;100125.94;;;17.09;100.00
80323;BME280;69636;52.372;13.610;2023-08-06T09:38:19;100118.44;;;17.17;100.00
80323;BME280;69636;52.372;13.610;2023-08-06T09:40:47;100116.59;;;17.18;100.00
80323;BME280;69636;52.372;13.610;2023-08-06T09:43:14;100116.78;;;17.23;99.91
80323;BME280;69636;52.372;13.610;2023-08-06T09:45:41;100119.03;;;17.33;100.00
80323;BME280;69636;52.372;13.610;2023-08-06T09:48:09;100116.75;;;17.36;100.00
80323;BME280;69636;52.372;13.610;2023-08-06T09:50:38;100115.03;;;17.48;99.91
80323;BME280;69636;52.372;13.610;2023-08-06T09:53:07;100115.25;;;17.47;100.00
80323;BME280;69636;52.372;13.610;2023-08-06T09:55:36;100110.56;;;17.29;100.00
80323;BME280;69636;52.372;13.610;2023-08-06T09:58:04;100109.53;;;17.37;100.00
80323;BME280;69636;52.372;13.610;2023-08-06T10:00:33;100109.13;;;17.33;100.00
80323;BME280;69636;52.372;13.610;2023-08-06T10:03:06;100100.06;;;17.27;100.00
80323;BME280;69636;52.372;13.610;2023-08-06T10:05:36;100100.94;;;17.15;100.00
80323;BME280;69636;52.372;13.610;2023-08-06T10:08:05;100101.81;;;16.95;100.00
80323;BME280;69636;52.372;13.610;2023-08-06T10:10:36;100102.44;;;16.91;100.00
80323;BME280;69636;52.372;13.610;2023-08-06T10:13:05;100095.22;;;16.91;100.00
80323;BME280;69636;52.372;13.610;2023-08-06T10:15:34;100105.94;;;16.91;100.00
80323;BME280;69636;52.372;13.610;2023-08-06T10:18:01;100091.91;;;16.89;100.00
80323;BME280;69636;52.372;13.610;2023-08-06T10:20:33;100091.50;;;16.92;100.00
80323;BME280;69636;52.372;13.610;2023-08-06T10:23:01;100094.38;;;16.98;100.00
80323;BME280;69636;52.372;13.610;2023-08-06T10:25:33;100083.25;;;17.01;100.00
80323;BME280;69636;52.372;13.610;2023-08-06T10:28:07;100088.56;;;17.14;100.00
80323;BME280;69636;52.372;13.610;2023-08-06T10:30:41;100090.84;;;17.10;100.00
80323;BME280;69636;52.372;13.610;2023-08-06T10:33:09;100090.31;;;16.82;100.00
80323;BME280;69636;52.372;13.610;2023-08-06T10:35:37;100095.22;;;16.91;100.00
80323;BME280;69636;52.372;13.610;2023-08-06T10:38:05;100087.38;;;16.96;100.00
80323;BME280;69636;52.372;13.610;2023-08-06T10:40:34;100080.34;;;17.09;100.00
80323;BME280;69636;52.372;13.610;2023-08-06T10:43:04;100082.84;;;16.90;98.20
80323;BME280;69636;52.372;13.610;2023-08-06T10:45:34;100070.13;;;16.79;99.51
80323;BME280;69636;52.372;13.610;2023-08-06T10:48:02;100074.03;;;16.83;98.98
80323;BME280;69636;52.372;13.610;2023-08-06T10:50:29;100074.25;;;16.75;98.83
80323;BME280;69636;52.372;13.610;2023-08-06T10:52:57;100066.84;;;16.64;98.98
80323;BME280;69636;52.372;13.610;2023-08-06T10:55:26;100074.66;;;16.66;98.97
80323;BME280;69636;52.372;13.610;2023-08-06T10:57:55;100068.06;;;16.68;98.87
80323;BME280;69636;52.372;13.610;2023-08-06T11:00:23;100064.75;;;16.79;99.63
80323;BME280;69636;52.372;13.610;2023-08-06T11:02:52;100064.09;;;16.90;99.90
80323;BME280;69636;52.372;13.610;2023-08-06T11:05:20;100064.69;;;16.99;99.33
80323;BME280;69636;52.372;13.610;2023-08-06T11:07:47;100057.22;;;17.08;99.02
80323;BME280;69636;52.372;13.610;2023-08-06T11:10:15;100053.91;;;17.12;98.72
80323;BME280;69636;52.372;13.610;2023-08-06T11:12:42;100046.25;;;17.16;98.52
80323;BME280;69636;52.372;13.610;2023-08-06T11:15:10;100051.28;;;16.99;97.60
80323;BME280;69636;52.372;13.610;2023-08-06T11:17:39;100051.84;;;17.14;98.44
80323;BME280;69636;52.372;13.610;2023-08-06T11:20:07;100048.06;;;17.22;97.09
80323;BME280;69636;52.372;13.610;2023-08-06T11:22:36;100043.13;;;17.25;97.61
80323;BME280;69636;52.372;13.610;2023-08-06T11:25:06;100036.13;;;17.18;95.66
80323;BME280;69636;52.372;13.610;2023-08-06T11:27:34;100033.63;;;17.23;96.61
80323;BME280;69636;52.372;13.610;2023-08-06T11:30:01;100037.78;;;17.19;97.07
80323;BME280;69636;52.372;13.610;2023-08-06T11:32:28;100034.44;;;17.23;98.40
80323;BME280;69636;52.372;13.610;2023-08-06T11:34:57;100027.41;;;17.29;98.44
80323;BME280;69636;52.372;13.610;2023-08-06T11:37:24;100023.50;;;17.25;97.28
80323;BME280;69636;52.372;13.610;2023-08-06T11:39:52;100026.38;;;17.30;96.52
80323;BME280;69636;52.372;13.610;2023-08-06T11:42:19;100025.56;;;17.29;96.00
80323;BME280;69636;52.372;13.610;2023-08-06T11:44:47;100014.03;;;17.22;96.17
80323;BME280;69636;52.372;13.610;2023-08-06T11:47:15;100007.66;;;17.17;97.54
80323;BME280;69636;52.372;13.610;2023-08-06T11:49:44;100010.13;;;17.18;97.38
80323;BME280;69636;52.372;13.610;2023-08-06T11:52:18;100011.84;;;17.13;97.20
80323;BME280;69636;52.372;13.610;2023-08-06T11:54:47;100009.25;;;17.31;96.75
80323;BME280;69636;52.372;13.610;2023-08-06T11:57:15;100008.03;;;17.27;95.82
80323;BME280;69636;52.372;13.610;2023-08-06T11:59:45;100006.75;;;17.36;96.08
80323;BME280;69636;52.372;13.610;2023-08-06T12:02:12;100006.88;;;17.48;96.00
80323;BME280;69636;52.372;13.610;2023-08-06T12:05:02;100005.00;;;17.48;95.25
80323;BME280;69636;52.372;13.610;2023-08-06T12:07:32;99998.00;;;17.47;95.32
80323;BME280;69636;52.372;13.610;2023-08-06T12:09:59;99998.00;;;17.47;96.42
80323;BME280;69636;52.372;13.610;2023-08-06T12:12:27;99999.66;;;17.42;97.20
80323;BME280;69636;52.372;13.610;2023-08-06T12:14:55;99992.63;;;17.47;96.61
80323;BME280;69636;52.372;13.610;2023-08-06T12:17:22;99985.97;;;17.56;96.03
80323;BME280;69636;52.372;13.610;2023-08-06T12:19:49;99987.97;;;17.68;95.20
80323;BME280;69636;52.372;13.610;2023-08-06T12:22:17;99992.91;;;17.71;95.63
80323;BME280;69636;52.372;13.610;2023-08-06T12:24:47;99992.56;;;17.60;94.04
80323;BME280;69636;52.372;13.610;2023-08-06T12:27:14;99992.97;;;17.57;93.30
80323;BME280;69636;52.372;13.610;2023-08-06T12:29:43;99997.56;;;17.50;93.78
80323;BME280;69636;52.372;13.610;2023-08-06T12:32:11;99996.97;;;17.48;93.68
80323;BME280;69636;52.372;13.610;2023-08-06T12:34:38;99999.25;;;17.45;94.55
80323;BME280;69636;52.372;13.610;2023-08-06T12:37:19;99990.47;;;17.31;95.32